Time;durP1;ratioP1;P1;durP2;ratioP2;P2;SDS_P1;SDS_P2;PMS_P1;PMS_P2;Temp;Humidity;BMP_temperature;BMP_pressure;BME280_temperature;BME280_humidity;BME280_pressure;Samples;Min_cycle;Max_cycle;Signal;HPM_P1;HPM_P2
2021/07/16 00:03:19;;;;;;;2.87;2.00;;;15.50;99.90;;;;;;21077623;28;20056;-82
2021/07/16 00:13:20;;;;;;;4.30;2.50;;;15.50;99.90;;;;;;21097508;28;20123;-81
2021/07/16 00:23:21;;;;;;;6.03;3.30;;;15.50;99.90;;;;;;21081461;28;20032;-82
2021/07/16 00:33:22;;;;;;;8.07;3.23;;;15.50;99.90;;;;;;21094051;28;20493;-82
2021/07/16 00:43:23;;;;;;;4.63;3.33;;;15.50;99.90;;;;;;21089870;28;20396;-80
2021/07/16 00:53:25;;;;;;;3.23;1.83;;;15.50;99.90;;;;;;21067824;28;20028;-78
2021/07/16 01:03:26;;;;;;;5.57;3.05;;;15.50;99.90;;;;;;21076840;28;20400;-80
2021/07/16 01:13:27;;;;;;;3.70;2.20;;;15.50;99.90;;;;;;21058501;28;20109;-78
2021/07/16 01:23:29;;;;;;;3.93;2.47;;;15.50;99.90;;;;;;21093999;28;20035;-78
2021/07/16 01:33:30;;;;;;;7.55;2.60;;;15.40;99.90;;;;;;21075372;28;20418;-80
2021/07/16 01:43:31;;;;;;;2.50;1.70;;;15.30;99.90;;;;;;21071851;28;20039;-81
2021/07/16 01:53:32;;;;;;;4.37;2.40;;;15.10;99.90;;;;;;21067871;28;20051;-80
2021/07/16 02:03:33;;;;;;;10.43;3.97;;;15.00;99.90;;;;;;21092341;28;20063;-79
2021/07/16 02:13:34;;;;;;;26.80;7.13;;;14.80;99.90;;;;;;21109156;28;20024;-79
2021/07/16 02:23:35;;;;;;;26.60;5.23;;;15.00;99.90;;;;;;21087987;28;20056;-79
2021/07/16 02:33:36;;;;;;;23.67;4.83;;;15.00;99.90;;;;;;21086220;28;20035;-79
2021/07/16 02:43:38;;;;;;;8.50;3.63;;;15.00;99.90;;;;;;21071065;28;20518;-80
2021/07/16 02:53:39;;;;;;;8.35;3.17;;;14.70;99.90;;;;;;21145983;28;20043;-81
2021/07/16 03:03:40;;;;;;;6.07;3.07;;;14.90;99.90;;;;;;21153495;28;20114;-81
2021/07/16 03:13:41;;;;;;;5.00;2.23;;;14.80;99.90;;;;;;21188064;28;20024;-81
2021/07/16 03:23:42;;;;;;;2.60;1.63;;;14.80;99.90;;;;;;21167516;28;20042;-82
2021/07/16 03:33:43;;;;;;;2.13;0.93;;;14.90;99.90;;;;;;21167052;28;20053;-80
2021/07/16 03:43:43;;;;;;;1.70;0.90;;;14.60;99.90;;;;;;21167152;28;20024;-82
2021/07/16 03:53:44;;;;;;;0.77;0.70;;;14.50;99.90;;;;;;21150093;28;20024;-80
2021/07/16 04:03:45;;;;;;;8.17;0.90;;;14.50;99.90;;;;;;21103833;28;20028;-79
2021/07/16 04:13:49;;;;;;;3.50;0.50;;;14.40;99.90;;;;;;21138923;28;20462;-80
2021/07/16 04:23:50;;;;;;;0.90;0.67;;;14.40;99.90;;;;;;21165437;28;20054;-81
2021/07/16 04:33:51;;;;;;;3.67;0.70;;;14.40;99.90;;;;;;21183081;28;20479;-81
2021/07/16 04:43:52;;;;;;;2.83;0.80;;;14.50;99.90;;;;;;21183851;28;20039;-80
2021/07/16 04:53:57;;;;;;;2.43;1.77;;;14.60;99.90;;;;;;21166297;28;20115;-81
2021/07/16 05:03:58;;;;;;;4.05;1.98;;;14.60;99.90;;;;;;21165286;28;20377;-78
2021/07/16 05:14:01;;;;;;;5.60;2.93;;;14.80;99.90;;;;;;21162456;28;20035;-80
2021/07/16 05:24:02;;;;;;;6.57;3.10;;;14.90;99.90;;;;;;21179704;28;20528;-82
2021/07/16 05:34:03;;;;;;;3.70;2.80;;;15.10;99.90;;;;;;21162113;28;20027;-81
2021/07/16 05:44:04;;;;;;;7.40;4.33;;;15.30;99.90;;;;;;21146837;28;20070;-79
2021/07/16 05:54:05;;;;;;;3.87;2.67;;;15.60;99.90;;;;;;21166416;28;20023;-80
2021/07/16 06:04:09;;;;;;;5.07;3.03;;;15.80;99.90;;;;;;21164957;28;20442;-79
2021/07/16 06:14:10;;;;;;;4.82;3.50;;;16.00;99.90;;;;;;21164754;28;20039;-81
2021/07/16 06:24:12;;;;;;;8.27;4.30;;;16.20;99.90;;;;;;21148123;28;20035;-77
2021/07/16 06:34:13;;;;;;;15.47;4.43;;;16.50;99.90;;;;;;21186098;28;20030;-79
2021/07/16 06:44:14;;;;;;;6.00;3.47;;;16.50;99.90;;;;;;21180274;28;20047;-81
2021/07/16 06:54:15;;;;;;;10.48;3.35;;;16.70;99.90;;;;;;21196873;28;20059;-80
2021/07/16 07:04:16;;;;;;;5.87;2.50;;;16.90;99.90;;;;;;21179200;28;20035;-78
2021/07/16 07:14:17;;;;;;;3.80;1.67;;;17.10;99.90;;;;;;21144717;28;20485;-80
2021/07/16 07:24:18;;;;;;;1.93;1.43;;;17.10;99.90;;;;;;21092642;28;20067;-79
2021/07/16 07:34:19;;;;;;;5.50;1.90;;;17.20;99.90;;;;;;21171730;28;20055;-79
2021/07/16 07:44:20;;;;;;;1.70;1.33;;;17.20;99.90;;;;;;21159543;28;20039;-80
2021/07/16 07:54:21;;;;;;;0.97;0.73;;;17.60;99.90;;;;;;21157352;28;20109;-79
2021/07/16 08:04:22;;;;;;;1.43;1.13;;;19.20;99.90;;;;;;21190707;28;20123;-77
2021/07/16 08:14:23;;;;;;;1.67;1.33;;;19.20;99.90;;;;;;21195982;28;20197;-78
2021/07/16 08:24:24;;;;;;;4.77;1.40;;;18.80;99.90;;;;;;21159045;28;20031;-79
2021/07/16 08:34:24;;;;;;;2.53;1.47;;;19.00;99.90;;;;;;21159588;28;20035;-78
2021/07/16 08:44:27;;;;;;;3.17;1.67;;;19.10;99.90;;;;;;21174092;28;20472;-81
2021/07/16 08:54:29;;;;;;;2.13;1.80;;;18.80;99.90;;;;;;21189336;28;20027;-81
2021/07/16 09:04:36;;;;;;;1.45;1.35;;;18.10;99.90;;;;;;21166822;28;20062;-79
2021/07/16 09:14:37;;;;;;;2.22;1.60;;;17.90;99.90;;;;;;21131071;28;20028;-80
2021/07/16 09:24:39;;;;;;;;;;;17.90;99.90;;;;;;21063987;28;20119;-81
2021/07/16 09:34:40;;;;;;;2.85;1.92;;;17.90;99.90;;;;;;21062819;28;19938;-79
2021/07/16 09:44:41;;;;;;;5.27;2.37;;;17.60;99.90;;;;;;21100696;28;20024;-80
2021/07/16 09:55:14;;;;;;;5.73;2.20;;;17.50;99.90;;;;;;21100120;28;20040;-79
2021/07/16 10:05:16;;;;;;;3.55;2.30;;;17.50;99.90;;;;;;21078855;28;20070;-80
2021/07/16 10:15:20;;;;;;;6.35;2.58;;;17.70;99.90;;;;;;21076575;28;20028;-81
2021/07/16 10:25:23;;;;;;;2.40;1.80;;;17.60;99.90;;;;;;21095339;28;20044;-79
2021/07/16 10:35:26;;;;;;;6.88;3.60;;;18.00;99.90;;;;;;21161028;28;20488;-81
2021/07/16 10:45:39;;;;;;;2.78;2.13;;;19.00;99.90;;;;;;21177711;28;20127;-79
2021/07/16 10:55:40;;;;;;;3.05;1.80;;;20.20;99.90;;;;;;21178236;28;20035;-78
2021/07/16 11:05:44;;;;;;;3.77;2.00;;;19.70;99.90;;;;;;21159700;28;20027;-80
2021/07/16 11:15:45;;;;;;;5.63;1.50;;;19.40;99.90;;;;;;21192547;28;20122;-79
2021/07/16 11:25:46;;;;;;;2.50;1.20;;;19.80;99.90;;;;;;21173882;28;20024;-80
2021/07/16 11:35:51;;;;;;;0.90;0.80;;;21.40;99.90;;;;;;21165126;28;20035;-80
2021/07/16 11:45:53;;;;;;;3.05;0.70;;;20.70;99.90;;;;;;21179799;28;20035;-80
2021/07/16 11:55:54;;;;;;;1.13;1.02;;;20.10;99.90;;;;;;21187722;28;20032;-78
2021/07/16 12:05:57;;;;;;;3.57;1.70;;;19.30;99.90;;;;;;21172871;28;20077;-80
2021/07/16 12:16:08;;;;;;;1.00;0.88;;;19.10;99.90;;;;;;21166558;28;20032;-78
2021/07/16 12:26:17;;;;;;;3.55;1.27;;;17.80;99.90;;;;;;21164457;28;20435;-80
2021/07/16 12:36:47;;;;;;;2.03;1.30;;;17.90;99.90;;;;;;21147893;28;20058;-80
2021/07/16 12:46:57;;;;;;;0.95;0.85;;;19.00;99.90;;;;;;21180133;28;20040;-80
2021/07/16 12:57:14;;;;;;;1.60;1.10;;;19.20;99.90;;;;;;21160964;28;20031;-81
2021/07/16 13:07:27;;;;;;;1.50;1.02;;;20.00;99.90;;;;;;21143242;28;20032;-81
2021/07/16 13:17:36;;;;;;;1.80;1.30;;;20.10;99.90;;;;;;21160142;28;20033;-81
2021/07/16 13:27:38;;;;;;;1.80;0.75;;;20.60;99.90;;;;;;21156811;28;20062;-80
2021/07/16 13:37:39;;;;;;;1.02;0.88;;;22.50;99.90;;;;;;21170471;28;20036;-81
2021/07/16 13:47:40;;;;;;;;;;;21.40;99.90;;;;;;21166222;28;20039;-81
2021/07/16 13:57:41;;;;;;;2.90;0.70;;;19.30;99.90;;;;;;21138396;28;19922;-78
2021/07/16 14:07:42;;;;;;;3.40;0.73;;;19.20;99.90;;;;;;21158456;28;20110;-79
2021/07/16 14:17:45;;;;;;;1.20;0.77;;;20.20;99.90;;;;;;21121025;28;20055;-81
2021/07/16 14:27:46;;;;;;;0.80;0.52;;;21.40;99.90;;;;;;21121281;28;20451;-81
2021/07/16 14:37:47;;;;;;;0.60;0.60;;;20.50;99.90;;;;;;21137598;28;20506;-81
2021/07/16 14:47:50;;;;;;;2.73;1.20;;;21.50;99.90;;;;;;21125326;28;20560;-80
2021/07/16 14:57:51;;;;;;;1.30;1.10;;;21.90;99.90;;;;;;21122623;28;20041;-81
2021/07/16 15:07:52;;;;;;;1.98;1.42;;;21.80;99.90;;;;;;21136253;28;20259;-82
2021/07/16 15:17:53;;;;;;;1.40;1.03;;;22.00;99.90;;;;;;21170429;28;20046;-81
2021/07/16 15:27:54;;;;;;;1.00;0.80;;;22.70;99.90;;;;;;21168646;28;20027;-79
2021/07/16 15:37:55;;;;;;;3.43;1.00;;;22.00;99.90;;;;;;21066741;28;20036;-77
2021/07/16 15:47:57;;;;;;;1.10;1.00;;;21.20;99.90;;;;;;21046214;28;20047;-79
2021/07/16 15:57:58;;;;;;;1.60;0.82;;;21.00;99.90;;;;;;21110309;28;20058;-78
2021/07/16 16:07:59;;;;;;;3.50;0.90;;;20.70;99.90;;;;;;21155197;28;20036;-78
2021/07/16 16:18:00;;;;;;;1.33;0.90;;;20.50;99.90;;;;;;21152775;28;20116;-79
2021/07/16 16:28:04;;;;;;;1.10;1.00;;;20.40;99.90;;;;;;21133674;28;20043;-78
2021/07/16 16:38:05;;;;;;;1.20;1.00;;;20.20;99.90;;;;;;21136469;28;20028;-78
2021/07/16 16:48:06;;;;;;;1.27;1.07;;;20.20;99.90;;;;;;21131091;28;20053;-78
2021/07/16 16:58:07;;;;;;;6.37;0.77;;;20.20;99.90;;;;;;21106635;28;20036;-78
2021/07/16 17:08:08;;;;;;;2.57;1.70;;;20.30;99.90;;;;;;21123388;28;20066;-78
2021/07/16 17:18:09;;;;;;;1.33;0.90;;;20.10;99.90;;;;;;21148081;28;20151;-78
2021/07/16 17:28:10;;;;;;;2.60;0.97;;;19.90;99.90;;;;;;21131760;28;20040;-78
2021/07/16 17:38:10;;;;;;;1.40;1.00;;;19.20;99.90;;;;;;21074235;22;20599;-76
2021/07/16 17:48:12;;;;;;;1.30;1.20;;;19.00;99.90;;;;;;20970616;28;20028;-75
2021/07/16 17:58:12;;;;;;;5.37;2.77;;;19.10;99.90;;;;;;20952188;28;20568;-76
2021/07/16 18:08:13;;;;;;;17.93;8.00;;;19.50;99.90;;;;;;20951401;28;20032;-76
2021/07/16 18:18:15;;;;;;;2.80;1.70;;;19.80;99.90;;;;;;20978750;28;20024;-76
2021/07/16 18:28:23;;;;;;;2.30;1.27;;;19.30;99.90;;;;;;20988934;28;20522;-76
2021/07/16 18:38:24;;;;;;;11.07;4.55;;;18.90;99.90;;;;;;21004188;28;20032;-76
2021/07/16 18:48:24;;;;;;;6.80;2.37;;;19.10;99.90;;;;;;21003563;28;20563;-78
2021/07/16 18:58:25;;;;;;;2.80;1.40;;;18.90;99.90;;;;;;21005331;28;20564;-77
2021/07/16 19:08:26;;;;;;;3.17;1.90;;;18.60;99.90;;;;;;21004771;28;20542;-76
2021/07/16 19:18:27;;;;;;;3.00;1.67;;;18.50;99.90;;;;;;21006449;28;20032;-77
2021/07/16 19:28:28;;;;;;;4.63;1.70;;;18.30;99.90;;;;;;20986399;28;20036;-77
2021/07/16 19:38:29;;;;;;;7.90;2.93;;;18.20;99.90;;;;;;21005977;28;20033;-78
2021/07/16 19:48:30;;;;;;;7.83;2.00;;;18.00;99.90;;;;;;21002243;28;20450;-77
2021/07/16 19:58:30;;;;;;;5.93;1.80;;;17.50;99.90;;;;;;21001655;28;20471;-77
2021/07/16 20:08:32;;;;;;;8.20;2.53;;;17.10;99.90;;;;;;21000425;28;20542;-77
2021/07/16 20:18:32;;;;;;;3.90;2.00;;;17.20;99.90;;;;;;21003727;28;20598;-77
2021/07/16 20:28:34;;;;;;;8.07;1.97;;;16.80;99.90;;;;;;21003204;28;20029;-77
2021/07/16 20:38:36;;;;;;;5.40;2.23;;;16.90;99.90;;;;;;21001342;28;20032;-77
2021/07/16 20:48:37;;;;;;;10.52;2.20;;;16.50;99.90;;;;;;21001146;28;20032;-77
2021/07/16 20:58:39;;;;;;;5.83;2.27;;;16.30;99.90;;;;;;20997101;28;20104;-77
2021/07/16 21:08:39;;;;;;;4.63;2.58;;;16.00;99.90;;;;;;20999685;28;20063;-77
2021/07/16 21:18:41;;;;;;;9.03;2.57;;;16.00;99.90;;;;;;20998936;28;20032;-77
2021/07/16 21:28:42;;;;;;;7.57;2.72;;;15.80;99.90;;;;;;20981770;28;20444;-77
2021/07/16 21:38:43;;;;;;;6.50;3.90;;;15.70;99.90;;;;;;20994005;28;20048;-77
2021/07/16 21:48:45;;;;;;;9.85;3.38;;;15.50;99.90;;;;;;20997137;28;20094;-77
2021/07/16 21:58:45;;;;;;;6.97;5.35;;;15.70;99.90;;;;;;20979123;28;20040;-77
2021/07/16 22:08:46;;;;;;;11.03;4.30;;;15.80;99.90;;;;;;21005154;28;20033;-77
2021/07/16 22:18:47;;;;;;;12.67;8.40;;;15.80;99.90;;;;;;21014121;28;20491;-77
2021/07/16 22:28:48;;;;;;;22.60;9.53;;;16.00;99.90;;;;;;21011642;28;20036;-76
2021/07/16 22:38:49;;;;;;;11.73;7.77;;;15.70;99.90;;;;;;21010871;28;20028;-77
2021/07/16 22:48:50;;;;;;;8.17;5.73;;;15.80;99.90;;;;;;21008748;28;20085;-77
2021/07/16 22:58:51;;;;;;;11.17;4.93;;;15.70;99.90;;;;;;21007443;28;20039;-76
2021/07/16 23:08:53;;;;;;;5.30;3.93;;;15.80;99.90;;;;;;21005221;28;20064;-76
2021/07/16 23:18:53;;;;;;;;;;;15.60;99.90;;;;;;21005240;28;20037;-77
2021/07/16 23:28:54;;;;;;;10.73;7.60;;;15.80;99.90;;;;;;20987808;28;20278;-77
2021/07/16 23:38:55;;;;;;;18.57;8.23;;;15.80;99.90;;;;;;21023027;22;20309;-76
2021/07/16 23:48:56;;;;;;;14.27;9.70;;;15.70;99.90;;;;;;20998155;28;20032;-77
2021/07/16 23:58:57;;;;;;;98.40;11.43;;;15.70;99.90;;;;;;20998217;28;20103;-77
